sensor_id;sensor_type;location;lat;lon;timestamp;temperature;humidity
30473;DHT22;17263;48.160;11.452;2023-09-08T00:02:26;15.40;99.90
30473;DHT22;17263;48.160;11.452;2023-09-08T00:04:53;15.40;99.90
30473;DHT22;17263;48.160;11.452;2023-09-08T00:07:19;15.40;99.90
30473;DHT22;17263;48.160;11.452;2023-09-08T00:09:45;15.40;99.90
30473;DHT22;17263;48.160;11.452;2023-09-08T00:12:11;15.30;99.90
30473;DHT22;17263;48.160;11.452;2023-09-08T00:14:37;15.30;99.90
30473;DHT22;17263;48.160;11.452;2023-09-08T00:17:04;15.30;99.90
30473;DHT22;17263;48.160;11.452;2023-09-08T00:19:30;15.30;99.90
30473;DHT22;17263;48.160;11.452;2023-09-08T00:21:56;15.20;99.90
30473;DHT22;17263;48.160;11.452;2023-09-08T00:24:22;15.20;99.90
30473;DHT22;17263;48.160;11.452;2023-09-08T00:26:48;15.20;99.90
30473;DHT22;17263;48.160;11.452;2023-09-08T00:29:15;15.20;99.90
30473;DHT22;17263;48.160;11.452;2023-09-08T00:31:41;15.10;99.90
30473;DHT22;17263;48.160;11.452;2023-09-08T00:34:10;15.10;99.90
30473;DHT22;17263;48.160;11.452;2023-09-08T00:36:36;15.00;99.90
30473;DHT22;17263;48.160;11.452;2023-09-08T00:39:02;15.00;99.90
30473;DHT22;17263;48.160;11.452;2023-09-08T00:41:29;15.00;99.90
30473;DHT22;17263;48.160;11.452;2023-09-08T00:43:55;15.00;99.90
30473;DHT22;17263;48.160;11.452;2023-09-08T00:46:21;15.00;99.90
30473;DHT22;17263;48.160;11.452;2023-09-08T00:48:47;15.00;99.90
30473;DHT22;17263;48.160;11.452;2023-09-08T00:51:14;14.90;99.90
30473;DHT22;17263;48.160;11.452;2023-09-08T00:53:41;14.90;99.90
30473;DHT22;17263;48.160;11.452;2023-09-08T00:56:08;14.80;99.90
30473;DHT22;17263;48.160;11.452;2023-09-08T00:58:34;14.80;99.90
30473;DHT22;17263;48.160;11.452;2023-09-08T01:01:01;14.80;99.90
30473;DHT22;17263;48.160;11.452;2023-09-08T01:03:27;14.80;99.90
30473;DHT22;17263;48.160;11.452;2023-09-08T01:05:53;14.80;99.90
30473;DHT22;17263;48.160;11.452;2023-09-08T01:08:20;14.80;99.90
30473;DHT22;17263;48.160;11.452;2023-09-08T01:10:46;14.70;99.90
30473;DHT22;17263;48.160;11.452;2023-09-08T01:13:13;14.80;99.90
30473;DHT22;17263;48.160;11.452;2023-09-08T01:15:39;14.70;99.90
30473;DHT22;17263;48.160;11.452;2023-09-08T01:18:05;14.70;99.90
30473;DHT22;17263;48.160;11.452;2023-09-08T01:23:42;14.70;99.90
30473;DHT22;17263;48.160;11.452;2023-09-08T01:26:17;14.70;99.90
30473;DHT22;17263;48.160;11.452;2023-09-08T01:28:45;14.70;99.90
30473;DHT22;17263;48.160;11.452;2023-09-08T01:31:12;14.60;99.90
30473;DHT22;17263;48.160;11.452;2023-09-08T01:33:39;14.60;99.90
30473;DHT22;17263;48.160;11.452;2023-09-08T01:36:05;14.60;99.90
30473;DHT22;17263;48.160;11.452;2023-09-08T01:38:32;14.60;99.90
30473;DHT22;17263;48.160;11.452;2023-09-08T01:40:58;14.50;99.90
30473;DHT22;17263;48.160;11.452;2023-09-08T01:43:24;14.50;99.90
30473;DHT22;17263;48.160;11.452;2023-09-08T01:45:50;14.50;99.90
30473;DHT22;17263;48.160;11.452;2023-09-08T01:48:16;14.50;99.90
30473;DHT22;17263;48.160;11.452;2023-09-08T01:50:42;14.40;99.90
30473;DHT22;17263;48.160;11.452;2023-09-08T01:53:08;14.40;99.90
30473;DHT22;17263;48.160;11.452;2023-09-08T01:55:34;14.40;99.90
30473;DHT22;17263;48.160;11.452;2023-09-08T01:58:00;14.40;99.90
30473;DHT22;17263;48.160;11.452;2023-09-08T02:00:26;14.40;99.90
30473;DHT22;17263;48.160;11.452;2023-09-08T02:02:52;14.40;99.90
30473;DHT22;17263;48.160;11.452;2023-09-08T02:05:18;14.40;99.90
30473;DHT22;17263;48.160;11.452;2023-09-08T02:07:44;14.30;99.90
30473;DHT22;17263;48.160;11.452;2023-09-08T02:10:10;14.30;99.90
30473;DHT22;17263;48.160;11.452;2023-09-08T02:12:36;14.30;99.90
30473;DHT22;17263;48.160;11.452;2023-09-08T02:15:03;14.20;99.90
30473;DHT22;17263;48.160;11.452;2023-09-08T02:17:30;14.30;99.90
30473;DHT22;17263;48.160;11.452;2023-09-08T02:19:56;14.20;99.90
30473;DHT22;17263;48.160;11.452;2023-09-08T02:22:22;14.20;99.90
30473;DHT22;17263;48.160;11.452;2023-09-08T02:24:48;14.20;99.90
30473;DHT22;17263;48.160;11.452;2023-09-08T02:27:14;14.20;99.90
30473;DHT22;17263;48.160;11.452;2023-09-08T02:29:40;14.10;99.90
30473;DHT22;17263;48.160;11.452;2023-09-08T02:32:06;14.10;99.90
30473;DHT22;17263;48.160;11.452;2023-09-08T02:34:36;14.10;99.90
30473;DHT22;17263;48.160;11.452;2023-09-08T02:37:04;14.10;99.90
30473;DHT22;17263;48.160;11.452;2023-09-08T02:39:31;14.10;99.90
30473;DHT22;17263;48.160;11.452;2023-09-08T02:41:57;14.10;99.90
30473;DHT22;17263;48.160;11.452;2023-09-08T02:44:23;14.10;99.90
30473;DHT22;17263;48.160;11.452;2023-09-08T02:46:51;14.00;99.90
30473;DHT22;17263;48.160;11.452;2023-09-08T02:49:17;14.00;99.90
30473;DHT22;17263;48.160;11.452;2023-09-08T02:51:43;14.00;99.90
30473;DHT22;17263;48.160;11.452;2023-09-08T02:54:09;14.00;99.90
30473;DHT22;17263;48.160;11.452;2023-09-08T02:56:35;14.00;99.90
30473;DHT22;17263;48.160;11.452;2023-09-08T02:59:01;13.90;99.90
30473;DHT22;17263;48.160;11.452;2023-09-08T03:01:27;13.90;99.90
30473;DHT22;17263;48.160;11.452;2023-09-08T03:03:53;13.90;99.90
30473;DHT22;17263;48.160;11.452;2023-09-08T03:06:20;13.80;99.90
30473;DHT22;17263;48.160;11.452;2023-09-08T03:08:46;13.80;99.90
30473;DHT22;17263;48.160;11.452;2023-09-08T03:11:12;13.80;99.90
30473;DHT22;17263;48.160;11.452;2023-09-08T03:13:38;13.80;99.90
30473;DHT22;17263;48.160;11.452;2023-09-08T03:16:06;13.80;99.90
30473;DHT22;17263;48.160;11.452;2023-09-08T03:18:33;13.80;99.90
30473;DHT22;17263;48.160;11.452;2023-09-08T03:21:00;13.80;99.90
30473;DHT22;17263;48.160;11.452;2023-09-08T03:23:40;13.70;99.90
30473;DHT22;17263;48.160;11.452;2023-09-08T03:26:07;13.70;99.90
30473;DHT22;17263;48.160;11.452;2023-09-08T03:28:34;13.60;99.90
30473;DHT22;17263;48.160;11.452;2023-09-08T03:31:04;13.70;99.90
30473;DHT22;17263;48.160;11.452;2023-09-08T03:33:30;13.70;99.90
30473;DHT22;17263;48.160;11.452;2023-09-08T03:35:57;13.60;99.90
30473;DHT22;17263;48.160;11.452;2023-09-08T03:38:23;13.60;99.90
30473;DHT22;17263;48.160;11.452;2023-09-08T03:40:49;13.60;99.90
30473;DHT22;17263;48.160;11.452;2023-09-08T03:43:15;13.60;99.90
30473;DHT22;17263;48.160;11.452;2023-09-08T03:45:42;13.60;99.90
30473;DHT22;17263;48.160;11.452;2023-09-08T03:48:08;13.60;99.90
30473;DHT22;17263;48.160;11.452;2023-09-08T03:50:34;13.60;99.90
30473;DHT22;17263;48.160;11.452;2023-09-08T03:53:00;13.60;99.90
30473;DHT22;17263;48.160;11.452;2023-09-08T03:55:27;13.60;99.90
30473;DHT22;17263;48.160;11.452;2023-09-08T03:57:53;13.60;99.90
30473;DHT22;17263;48.160;11.452;2023-09-08T04:00:19;13.60;99.90
30473;DHT22;17263;48.160;11.452;2023-09-08T04:02:50;13.60;99.90
30473;DHT22;17263;48.160;11.452;2023-09-08T04:05:17;13.60;99.90
30473;DHT22;17263;48.160;11.452;2023-09-08T04:07:45;13.60;99.90
30473;DHT22;17263;48.160;11.452;2023-09-08T04:10:11;13.60;99.90
30473;DHT22;17263;48.160;11.452;2023-09-08T04:12:39;13.50;99.90
30473;DHT22;17263;48.160;11.452;2023-09-08T04:15:06;13.50;99.90
30473;DHT22;17263;48.160;11.452;2023-09-08T04:17:32;13.50;99.90
30473;DHT22;17263;48.160;11.452;2023-09-08T04:19:59;13.50;99.90
30473;DHT22;17263;48.160;11.452;2023-09-08T04:22:25;13.50;99.90
30473;DHT22;17263;48.160;11.452;2023-09-08T04:24:51;13.50;99.90
30473;DHT22;17263;48.160;11.452;2023-09-08T04:27:19;13.50;99.90
30473;DHT22;17263;48.160;11.452;2023-09-08T04:29:45;13.40;99.90
30473;DHT22;17263;48.160;11.452;2023-09-08T04:32:11;13.40;99.90
30473;DHT22;17263;48.160;11.452;2023-09-08T04:34:41;13.40;99.90
30473;DHT22;17263;48.160;11.452;2023-09-08T04:37:08;13.40;99.90
30473;DHT22;17263;48.160;11.452;2023-09-08T04:39:35;13.30;99.90
30473;DHT22;17263;48.160;11.452;2023-09-08T04:42:01;13.30;99.90
30473;DHT22;17263;48.160;11.452;2023-09-08T04:44:27;13.30;99.90
30473;DHT22;17263;48.160;11.452;2023-09-08T04:46:54;13.30;99.90
30473;DHT22;17263;48.160;11.452;2023-09-08T04:49:20;13.30;99.90
30473;DHT22;17263;48.160;11.452;2023-09-08T04:51:46;13.30;99.90
30473;DHT22;17263;48.160;11.452;2023-09-08T04:54:12;13.30;99.90
30473;DHT22;17263;48.160;11.452;2023-09-08T04:56:39;13.30;99.90
30473;DHT22;17263;48.160;11.452;2023-09-08T04:59:05;13.20;99.90
30473;DHT22;17263;48.160;11.452;2023-09-08T05:01:31;13.20;99.90
30473;DHT22;17263;48.160;11.452;2023-09-08T05:04:01;13.20;99.90
30473;DHT22;17263;48.160;11.452;2023-09-08T05:06:27;13.20;99.90
30473;DHT22;17263;48.160;11.452;2023-09-08T05:08:53;13.30;99.90
30473;DHT22;17263;48.160;11.452;2023-09-08T05:11:19;13.30;99.90
30473;DHT22;17263;48.160;11.452;2023-09-08T05:13:46;13.40;99.90
30473;DHT22;17263;48.160;11.452;2023-09-08T05:16:12;13.40;99.90
30473;DHT22;17263;48.160;11.452;2023-09-08T05:18:39;13.50;99.90
30473;DHT22;17263;48.160;11.452;2023-09-08T05:21:06;13.50;99.90
30473;DHT22;17263;48.160;11.452;2023-09-08T05:23:32;13.50;99.90
30473;DHT22;17263;48.160;11.452;2023-09-08T05:25:59;13.50;99.90
30473;DHT22;17263;48.160;11.452;2023-09-08T05:28:25;13.60;99.90
30473;DHT22;17263;48.160;11.452;2023-09-08T05:30:52;13.60;99.90
30473;DHT22;17263;48.160;11.452;2023-09-08T05:33:18;13.70;99.90
30473;DHT22;17263;48.160;11.452;2023-09-08T05:35:45;13.70;99.90
30473;DHT22;17263;48.160;11.452;2023-09-08T05:38:11;13.80;99.90
30473;DHT22;17263;48.160;11.452;2023-09-08T05:40:37;13.90;99.90
30473;DHT22;17263;48.160;11.452;2023-09-08T05:43:04;13.90;99.90
30473;DHT22;17263;48.160;11.452;2023-09-08T05:45:32;14.00;99.90
30473;DHT22;17263;48.160;11.452;2023-09-08T05:47:58;14.10;99.90
30473;DHT22;17263;48.160;11.452;2023-09-08T05:50:24;14.20;99.90
30473;DHT22;17263;48.160;11.452;2023-09-08T05:52:51;14.20;99.90
30473;DHT22;17263;48.160;11.452;2023-09-08T05:55:17;14.30;99.90
30473;DHT22;17263;48.160;11.452;2023-09-08T05:57:43;14.40;99.90
30473;DHT22;17263;48.160;11.452;2023-09-08T06:00:09;14.50;99.90
30473;DHT22;17263;48.160;11.452;2023-09-08T06:02:36;14.50;99.90
30473;DHT22;17263;48.160;11.452;2023-09-08T06:05:02;14.60;99.90
30473;DHT22;17263;48.160;11.452;2023-09-08T06:07:28;14.70;99.90
30473;DHT22;17263;48.160;11.452;2023-09-08T06:09:54;14.90;99.90
30473;DHT22;17263;48.160;11.452;2023-09-08T06:12:20;14.90;99.90
30473;DHT22;17263;48.160;11.452;2023-09-08T06:14:46;15.10;99.90
30473;DHT22;17263;48.160;11.452;2023-09-08T06:17:12;15.30;99.90
30473;DHT22;17263;48.160;11.452;2023-09-08T06:19:38;15.60;99.90
30473;DHT22;17263;48.160;11.452;2023-09-08T06:22:04;15.90;99.90
30473;DHT22;17263;48.160;11.452;2023-09-08T06:24:30;16.40;99.90
30473;DHT22;17263;48.160;11.452;2023-09-08T06:26:56;17.20;99.90
30473;DHT22;17263;48.160;11.452;2023-09-08T06:29:22;18.20;99.90
30473;DHT22;17263;48.160;11.452;2023-09-08T06:31:48;19.30;99.90
30473;DHT22;17263;48.160;11.452;2023-09-08T06:34:14;20.40;99.90
30473;DHT22;17263;48.160;11.452;2023-09-08T06:36:40;21.40;99.90
30473;DHT22;17263;48.160;11.452;2023-09-08T06:39:06;22.20;99.90
30473;DHT22;17263;48.160;11.452;2023-09-08T06:41:32;22.90;99.90
30473;DHT22;17263;48.160;11.452;2023-09-08T06:43:59;23.50;99.90
30473;DHT22;17263;48.160;11.452;2023-09-08T06:46:25;23.80;99.90
30473;DHT22;17263;48.160;11.452;2023-09-08T06:48:51;24.00;99.90
30473;DHT22;17263;48.160;11.452;2023-09-08T06:51:17;24.50;99.90
30473;DHT22;17263;48.160;11.452;2023-09-08T06:53:43;25.00;99.90
30473;DHT22;17263;48.160;11.452;2023-09-08T06:56:10;25.30;99.90
30473;DHT22;17263;48.160;11.452;2023-09-08T06:58:36;25.50;99.90
30473;DHT22;17263;48.160;11.452;2023-09-08T07:01:02;25.70;99.90
30473;DHT22;17263;48.160;11.452;2023-09-08T07:03:28;25.80;99.90
30473;DHT22;17263;48.160;11.452;2023-09-08T07:05:54;25.90;99.90
30473;DHT22;17263;48.160;11.452;2023-09-08T07:08:20;25.70;99.90
30473;DHT22;17263;48.160;11.452;2023-09-08T07:10:52;25.80;99.90
30473;DHT22;17263;48.160;11.452;2023-09-08T07:13:18;26.10;99.90
30473;DHT22;17263;48.160;11.452;2023-09-08T07:15:44;26.20;99.90
30473;DHT22;17263;48.160;11.452;2023-09-08T07:18:10;26.80;99.90
30473;DHT22;17263;48.160;11.452;2023-09-08T07:20:36;27.20;99.90
30473;DHT22;17263;48.160;11.452;2023-09-08T07:23:02;27.30;99.90
30473;DHT22;17263;48.160;11.452;2023-09-08T07:25:28;27.40;99.90
30473;DHT22;17263;48.160;11.452;2023-09-08T07:27:54;27.50;99.90
30473;DHT22;17263;48.160;11.452;2023-09-08T07:30:21;27.70;99.90
30473;DHT22;17263;48.160;11.452;2023-09-08T07:32:47;28.00;99.90
30473;DHT22;17263;48.160;11.452;2023-09-08T07:35:13;28.00;99.90
30473;DHT22;17263;48.160;11.452;2023-09-08T07:37:40;27.90;99.50
30473;DHT22;17263;48.160;11.452;2023-09-08T07:40:10;28.00;99.30
30473;DHT22;17263;48.160;11.452;2023-09-08T07:42:36;27.90;99.40
30473;DHT22;17263;48.160;11.452;2023-09-08T07:45:02;28.00;99.20
30473;DHT22;17263;48.160;11.452;2023-09-08T07:47:28;27.90;98.70
30473;DHT22;17263;48.160;11.452;2023-09-08T07:52:44;27.60;98.70
30473;DHT22;17263;48.160;11.452;2023-09-08T07:55:10;27.70;98.60
30473;DHT22;17263;48.160;11.452;2023-09-08T07:57:36;27.70;98.50
30473;DHT22;17263;48.160;11.452;2023-09-08T08:00:03;27.80;98.70
30473;DHT22;17263;48.160;11.452;2023-09-08T08:02:31;27.90;98.20
30473;DHT22;17263;48.160;11.452;2023-09-08T08:04:57;28.00;98.60
30473;DHT22;17263;48.160;11.452;2023-09-08T08:07:23;28.10;98.30
30473;DHT22;17263;48.160;11.452;2023-09-08T08:09:49;28.30;97.70
30473;DHT22;17263;48.160;11.452;2023-09-08T08:12:15;28.40;97.40
30473;DHT22;17263;48.160;11.452;2023-09-08T08:14:41;28.50;97.40
30473;DHT22;17263;48.160;11.452;2023-09-08T08:17:07;28.60;97.20
30473;DHT22;17263;48.160;11.452;2023-09-08T08:19:33;28.70;96.80
30473;DHT22;17263;48.160;11.452;2023-09-08T08:21:59;28.60;96.70
30473;DHT22;17263;48.160;11.452;2023-09-08T08:24:25;28.50;97.00
30473;DHT22;17263;48.160;11.452;2023-09-08T08:26:52;28.40;97.70
30473;DHT22;17263;48.160;11.452;2023-09-08T08:29:18;28.50;97.30
30473;DHT22;17263;48.160;11.452;2023-09-08T08:31:44;28.60;96.40
30473;DHT22;17263;48.160;11.452;2023-09-08T08:34:10;28.50;96.10
30473;DHT22;17263;48.160;11.452;2023-09-08T08:36:36;28.20;96.50
30473;DHT22;17263;48.160;11.452;2023-09-08T08:39:02;27.80;97.50
30473;DHT22;17263;48.160;11.452;2023-09-08T08:41:29;27.30;97.70
30473;DHT22;17263;48.160;11.452;2023-09-08T08:43:55;27.30;97.90
30473;DHT22;17263;48.160;11.452;2023-09-08T08:46:22;27.40;98.20
30473;DHT22;17263;48.160;11.452;2023-09-08T08:48:49;27.60;98.20
30473;DHT22;17263;48.160;11.452;2023-09-08T08:51:23;27.70;97.90
30473;DHT22;17263;48.160;11.452;2023-09-08T08:53:49;27.90;97.50
30473;DHT22;17263;48.160;11.452;2023-09-08T08:56:16;28.00;97.20
30473;DHT22;17263;48.160;11.452;2023-09-08T08:58:44;28.00;97.30
30473;DHT22;17263;48.160;11.452;2023-09-08T09:01:11;28.00;97.20
30473;DHT22;17263;48.160;11.452;2023-09-08T09:03:39;28.00;97.10
30473;DHT22;17263;48.160;11.452;2023-09-08T09:06:06;28.00;97.50
30473;DHT22;17263;48.160;11.452;2023-09-08T09:08:32;28.10;97.30
30473;DHT22;17263;48.160;11.452;2023-09-08T09:10:59;28.00;97.40
30473;DHT22;17263;48.160;11.452;2023-09-08T09:13:25;27.90;97.80
30473;DHT22;17263;48.160;11.452;2023-09-08T09:15:51;27.80;97.40
30473;DHT22;17263;48.160;11.452;2023-09-08T09:18:17;27.70;97.50
30473;DHT22;17263;48.160;11.452;2023-09-08T09:20:54;27.70;97.10
30473;DHT22;17263;48.160;11.452;2023-09-08T09:23:30;27.60;97.20
30473;DHT22;17263;48.160;11.452;2023-09-08T09:25:58;27.40;98.10
30473;DHT22;17263;48.160;11.452;2023-09-08T09:28:24;27.00;98.40
30473;DHT22;17263;48.160;11.452;2023-09-08T09:30:52;26.80;98.90
30473;DHT22;17263;48.160;11.452;2023-09-08T09:33:20;26.60;99.50
30473;DHT22;17263;48.160;11.452;2023-09-08T09:35:48;26.60;99.60
30473;DHT22;17263;48.160;11.452;2023-09-08T09:38:15;26.60;99.90
30473;DHT22;17263;48.160;11.452;2023-09-08T09:40:45;26.60;99.90
30473;DHT22;17263;48.160;11.452;2023-09-08T09:43:12;26.60;99.90
30473;DHT22;17263;48.160;11.452;2023-09-08T09:45:39;26.50;99.90
30473;DHT22;17263;48.160;11.452;2023-09-08T09:48:06;26.30;99.90
30473;DHT22;17263;48.160;11.452;2023-09-08T09:50:38;26.10;99.90
30473;DHT22;17263;48.160;11.452;2023-09-08T09:53:15;25.80;99.90
30473;DHT22;17263;48.160;11.452;2023-09-08T09:55:44;25.60;99.90
30473;DHT22;17263;48.160;11.452;2023-09-08T09:58:11;25.30;99.90
30473;DHT22;17263;48.160;11.452;2023-09-08T10:00:38;25.10;99.90
30473;DHT22;17263;48.160;11.452;2023-09-08T10:03:07;25.00;99.90
30473;DHT22;17263;48.160;11.452;2023-09-08T10:05:34;24.90;99.90
30473;DHT22;17263;48.160;11.452;2023-09-08T10:08:00;24.80;99.90
30473;DHT22;17263;48.160;11.452;2023-09-08T10:10:27;24.80;99.90
30473;DHT22;17263;48.160;11.452;2023-09-08T10:13:02;24.70;99.90
30473;DHT22;17263;48.160;11.452;2023-09-08T10:15:30;24.70;99.90
30473;DHT22;17263;48.160;11.452;2023-09-08T10:17:56;24.50;99.90
30473;DHT22;17263;48.160;11.452;2023-09-08T10:20:27;24.40;99.90
30473;DHT22;17263;48.160;11.452;2023-09-08T10:23:01;24.30;99.90
30473;DHT22;17263;48.160;11.452;2023-09-08T10:25:31;24.30;99.90
30473;DHT22;17263;48.160;11.452;2023-09-08T10:28:01;24.30;99.90
30473;DHT22;17263;48.160;11.452;2023-09-08T10:30:30;24.40;99.90
30473;DHT22;17263;48.160;11.452;2023-09-08T10:32:57;24.40;99.90
30473;DHT22;17263;48.160;11.452;2023-09-08T10:35:24;24.50;99.90
30473;DHT22;17263;48.160;11.452;2023-09-08T10:37:50;24.50;99.90
30473;DHT22;17263;48.160;11.452;2023-09-08T10:40:26;24.50;99.90
30473;DHT22;17263;48.160;11.452;2023-09-08T10:43:07;24.50;99.90
30473;DHT22;17263;48.160;11.452;2023-09-08T10:45:33;24.40;99.90
30473;DHT22;17263;48.160;11.452;2023-09-08T10:48:00;24.40;99.90
30473;DHT22;17263;48.160;11.452;2023-09-08T10:50:34;24.40;99.90
30473;DHT22;17263;48.160;11.452;2023-09-08T10:53:20;24.50;99.90
30473;DHT22;17263;48.160;11.452;2023-09-08T10:55:49;24.50;99.90
30473;DHT22;17263;48.160;11.452;2023-09-08T10:58:39;24.50;99.90
30473;DHT22;17263;48.160;11.452;2023-09-08T11:01:13;24.50;99.90
30473;DHT22;17263;48.160;11.452;2023-09-08T11:06:08;24.60;99.90
30473;DHT22;17263;48.160;11.452;2023-09-08T11:08:38;24.60;99.90
30473;DHT22;17263;48.160;11.452;2023-09-08T11:11:04;24.50;99.90
30473;DHT22;17263;48.160;11.452;2023-09-08T11:13:30;24.60;99.90
30473;DHT22;17263;48.160;11.452;2023-09-08T11:15:56;24.50;99.90
30473;DHT22;17263;48.160;11.452;2023-09-08T11:18:29;24.50;99.90
30473;DHT22;17263;48.160;11.452;2023-09-08T11:20:56;24.50;99.90
30473;DHT22;17263;48.160;11.452;2023-09-08T11:23:23;24.60;99.90
30473;DHT22;17263;48.160;11.452;2023-09-08T11:25:51;24.60;99.90
30473;DHT22;17263;48.160;11.452;2023-09-08T11:28:18;24.70;99.90
30473;DHT22;17263;48.160;11.452;2023-09-08T11:30:48;24.70;99.90
30473;DHT22;17263;48.160;11.452;2023-09-08T11:33:15;24.70;99.90
30473;DHT22;17263;48.160;11.452;2023-09-08T11:35:42;24.70;99.90
30473;DHT22;17263;48.160;11.452;2023-09-08T11:38:11;24.80;99.90
30473;DHT22;17263;48.160;11.452;2023-09-08T11:40:46;24.80;99.90
30473;DHT22;17263;48.160;11.452;2023-09-08T11:43:12;24.90;99.90
30473;DHT22;17263;48.160;11.452;2023-09-08T11:45:38;24.90;99.90
30473;DHT22;17263;48.160;11.452;2023-09-08T11:48:04;24.90;99.90
30473;DHT22;17263;48.160;11.452;2023-09-08T11:50:31;24.90;99.90
30473;DHT22;17263;48.160;11.452;2023-09-08T11:52:57;25.00;99.90
30473;DHT22;17263;48.160;11.452;2023-09-08T11:55:25;25.00;99.90
30473;DHT22;17263;48.160;11.452;2023-09-08T11:57:54;25.10;99.90
30473;DHT22;17263;48.160;11.452;2023-09-08T12:00:24;25.20;99.90
30473;DHT22;17263;48.160;11.452;2023-09-08T12:02:52;25.20;99.90
30473;DHT22;17263;48.160;11.452;2023-09-08T12:05:25;25.20;99.90
30473;DHT22;17263;48.160;11.452;2023-09-08T12:07:54;25.20;99.90
30473;DHT22;17263;48.160;11.452;2023-09-08T12:10:21;25.30;99.90
30473;DHT22;17263;48.160;11.452;2023-09-08T12:12:52;25.20;99.90
30473;DHT22;17263;48.160;11.452;2023-09-08T12:15:36;25.40;99.90
30473;DHT22;17263;48.160;11.452;2023-09-08T12:18:08;25.40;99.90
30473;DHT22;17263;48.160;11.452;2023-09-08T12:20:35;25.40;99.90
30473;DHT22;17263;48.160;11.452;2023-09-08T12:23:04;25.50;99.90
30473;DHT22;17263;48.160;11.452;2023-09-08T12:25:31;25.40;99.90
30473;DHT22;17263;48.160;11.452;2023-09-08T12:27:58;25.40;99.90
30473;DHT22;17263;48.160;11.452;2023-09-08T12:30:24;25.50;99.90
30473;DHT22;17263;48.160;11.452;2023-09-08T12:32:57;25.50;99.90
30473;DHT22;17263;48.160;11.452;2023-09-08T12:35:25;25.50;99.90
30473;DHT22;17263;48.160;11.452;2023-09-08T12:38:03;25.50;99.90
30473;DHT22;17263;48.160;11.452;2023-09-08T12:40:35;25.50;99.90
30473;DHT22;17263;48.160;11.452;2023-09-08T12:43:02;25.40;99.90
30473;DHT22;17263;48.160;11.452;2023-09-08T12:45:30;25.50;99.90
30473;DHT22;17263;48.160;11.452;2023-09-08T12:47:59;25.40;99.90
30473;DHT22;17263;48.160;11.452;2023-09-08T12:50:27;25.50;99.90
30473;DHT22;17263;48.160;11.452;2023-09-08T12:52:53;25.40;99.90
30473;DHT22;17263;48.160;11.452;2023-09-08T12:55:19;25.50;99.90
30473;DHT22;17263;48.160;11.452;2023-09-08T12:57:46;25.40;99.90
30473;DHT22;17263;48.160;11.452;2023-09-08T13:00:13;25.50;99.90
30473;DHT22;17263;48.160;11.452;2023-09-08T13:02:40;25.50;99.90
30473;DHT22;17263;48.160;11.452;2023-09-08T13:05:07;25.60;99.90
30473;DHT22;17263;48.160;11.452;2023-09-08T13:07:33;25.60;99.90
30473;DHT22;17263;48.160;11.452;2023-09-08T13:09:59;25.60;99.90
30473;DHT22;17263;48.160;11.452;2023-09-08T13:12:26;25.60;99.90
30473;DHT22;17263;48.160;11.452;2023-09-08T13:14:52;25.60;99.90
30473;DHT22;17263;48.160;11.452;2023-09-08T13:17:18;25.60;99.90
30473;DHT22;17263;48.160;11.452;2023-09-08T13:19:44;25.60;99.90
30473;DHT22;17263;48.160;11.452;2023-09-08T13:22:10;25.60;99.90
30473;DHT22;17263;48.160;11.452;2023-09-08T13:24:37;25.60;99.90
30473;DHT22;17263;48.160;11.452;2023-09-08T13:27:03;25.70;99.90
30473;DHT22;17263;48.160;11.452;2023-09-08T13:29:29;25.70;99.90
30473;DHT22;17263;48.160;11.452;2023-09-08T13:31:55;25.70;99.90
30473;DHT22;17263;48.160;11.452;2023-09-08T13:34:22;25.70;99.90
30473;DHT22;17263;48.160;11.452;2023-09-08T13:36:49;25.70;99.90
30473;DHT22;17263;48.160;11.452;2023-09-08T13:39:15;25.70;99.90
30473;DHT22;17263;48.160;11.452;2023-09-08T13:41:52;25.80;99.90
30473;DHT22;17263;48.160;11.452;2023-09-08T13:44:23;25.90;99.90
30473;DHT22;17263;48.160;11.452;2023-09-08T13:46:50;25.90;99.90
30473;DHT22;17263;48.160;11.452;2023-09-08T13:49:17;26.00;99.90
30473;DHT22;17263;48.160;11.452;2023-09-08T13:51:43;26.00;99.90
30473;DHT22;17263;48.160;11.452;2023-09-08T13:54:09;25.90;99.90
30473;DHT22;17263;48.160;11.452;2023-09-08T13:56:38;25.90;99.90
30473;DHT22;17263;48.160;11.452;2023-09-08T13:59:04;26.00;99.90
30473;DHT22;17263;48.160;11.452;2023-09-08T14:01:33;26.00;99.90
30473;DHT22;17263;48.160;11.452;2023-09-08T14:03:59;25.90;99.90
30473;DHT22;17263;48.160;11.452;2023-09-08T14:06:27;25.80;99.90
30473;DHT22;17263;48.160;11.452;2023-09-08T14:08:53;25.70;99.90
30473;DHT22;17263;48.160;11.452;2023-09-08T14:11:20;25.70;99.90
30473;DHT22;17263;48.160;11.452;2023-09-08T14:13:46;25.70;99.90
30473;DHT22;17263;48.160;11.452;2023-09-08T14:16:12;25.70;99.90
30473;DHT22;17263;48.160;11.452;2023-09-08T14:18:39;25.70;99.90
30473;DHT22;17263;48.160;11.452;2023-09-08T14:21:06;25.70;99.90
30473;DHT22;17263;48.160;11.452;2023-09-08T14:23:33;25.70;99.90
30473;DHT22;17263;48.160;11.452;2023-09-08T14:26:00;25.70;99.90
30473;DHT22;17263;48.160;11.452;2023-09-08T14:28:26;25.60;99.90
30473;DHT22;17263;48.160;11.452;2023-09-08T14:30:53;25.60;99.90
30473;DHT22;17263;48.160;11.452;2023-09-08T14:33:19;25.60;99.90
30473;DHT22;17263;48.160;11.452;2023-09-08T14:35:45;25.50;99.90
30473;DHT22;17263;48.160;11.452;2023-09-08T14:38:18;25.50;99.90
30473;DHT22;17263;48.160;11.452;2023-09-08T14:40:45;25.50;99.90
30473;DHT22;17263;48.160;11.452;2023-09-08T14:43:19;25.50;99.90
30473;DHT22;17263;48.160;11.452;2023-09-08T14:45:45;25.50;99.90
30473;DHT22;17263;48.160;11.452;2023-09-08T14:48:11;25.50;99.90
30473;DHT22;17263;48.160;11.452;2023-09-08T14:50:37;25.50;99.90
30473;DHT22;17263;48.160;11.452;2023-09-08T14:53:03;25.40;99.90
30473;DHT22;17263;48.160;11.452;2023-09-08T14:55:29;25.40;99.90
30473;DHT22;17263;48.160;11.452;2023-09-08T14:57:55;25.40;99.90
30473;DHT22;17263;48.160;11.452;2023-09-08T15:00:21;25.40;99.90
30473;DHT22;17263;48.160;11.452;2023-09-08T15:02:47;25.40;99.90
30473;DHT22;17263;48.160;11.452;2023-09-08T15:05:13;25.50;99.90
30473;DHT22;17263;48.160;11.452;2023-09-08T15:07:39;25.40;99.90
30473;DHT22;17263;48.160;11.452;2023-09-08T15:10:06;25.40;99.90
30473;DHT22;17263;48.160;11.452;2023-09-08T15:12:32;25.30;99.90
30473;DHT22;17263;48.160;11.452;2023-09-08T15:14:58;25.30;99.90
30473;DHT22;17263;48.160;11.452;2023-09-08T15:17:24;25.30;99.90
30473;DHT22;17263;48.160;11.452;2023-09-08T15:19:50;25.30;99.90
30473;DHT22;17263;48.160;11.452;2023-09-08T15:22:16;25.20;99.90
30473;DHT22;17263;48.160;11.452;2023-09-08T15:24:42;25.20;99.90